Time;durP1;ratioP1;P1;durP2;ratioP2;P2;SDS_P1;SDS_P2;PMS_P1;PMS_P2;Temp;Humidity;BMP_temperature;BMP_pressure;BME280_temperature;BME280_humidity;BME280_pressure;Samples;Min_cycle;Max_cycle;Signal;HPM_P1;HPM_P2
2020/12/15 00:00:14;;;;;;;5.35;3.65;;;9.60;87.90;;;;;;5035157;28;20080;-96
2020/12/15 00:02:43;;;;;;;5.65;3.47;;;9.60;87.90;;;;;;5035428;28;20048;-96
2020/12/15 00:05:09;;;;;;;3.05;2.65;;;9.60;87.80;;;;;;5032875;28;20026;-96
2020/12/15 00:07:34;;;;;;;3.50;2.70;;;9.60;87.80;;;;;;5014639;28;20017;-96
2020/12/15 00:10:00;;;;;;;4.00;3.00;;;9.60;87.60;;;;;;5027674;28;20045;-96
2020/12/15 00:12:26;;;;;;;5.30;3.63;;;9.60;87.60;;;;;;5006908;28;20030;-96
2020/12/15 00:14:52;;;;;;;3.72;2.80;;;9.60;87.60;;;;;;5032757;28;20022;-96
2020/12/15 00:17:17;;;;;;;6.07;3.50;;;9.70;87.50;;;;;;5016875;28;20058;-96
2020/12/15 00:19:43;;;;;;;4.45;2.90;;;9.60;87.20;;;;;;5017554;28;20053;-96
2020/12/15 00:35:06;;;;;;;4.00;2.83;;;9.60;87.10;;;;;;5012506;28;20042;-96
2020/12/15 00:37:37;;;;;;;4.60;3.30;;;9.60;87.10;;;;;;5004025;28;20029;-96
2020/12/15 00:40:04;;;;;;;4.05;2.83;;;9.60;87.10;;;;;;4984140;28;20030;-96
2020/12/15 00:42:29;;;;;;;3.28;2.60;;;9.70;87.20;;;;;;5000782;28;20038;-96
2020/12/15 00:44:55;;;;;;;5.93;3.25;;;9.60;87.20;;;;;;4999803;28;20373;-95
2020/12/15 00:47:21;;;;;;;4.28;3.10;;;9.60;87.10;;;;;;5013020;28;20010;-95
2020/12/15 00:49:46;;;;;;;5.78;3.67;;;9.70;87.20;;;;;;5019053;28;20019;-96
2020/12/15 00:52:12;;;;;;;4.55;3.10;;;9.70;87.00;;;;;;5019404;28;20018;-96
2020/12/15 00:54:38;;;;;;;3.40;2.88;;;9.60;87.00;;;;;;5003006;28;20020;-96
2020/12/15 00:57:04;;;;;;;3.22;2.33;;;9.60;87.10;;;;;;5019462;28;20014;-96
2020/12/15 00:59:29;;;;;;;4.40;2.78;;;9.80;87.20;;;;;;5019122;28;20010;-96
2020/12/15 01:01:59;;;;;;;5.15;2.88;;;9.60;87.00;;;;;;5018991;28;20010;-96
2020/12/15 01:04:25;;;;;;;3.75;3.10;;;9.60;87.00;;;;;;5002268;28;20037;-96
2020/12/15 01:06:51;;;;;;;3.97;2.80;;;9.50;87.10;;;;;;5019779;28;20006;-96
2020/12/15 01:09:17;;;;;;;4.65;2.40;;;9.60;87.30;;;;;;5017954;28;20089;-96
2020/12/15 01:11:43;;;;;;;4.68;3.20;;;9.60;87.30;;;;;;5017519;28;20041;-94
2020/12/15 01:14:09;;;;;;;4.18;3.10;;;9.60;87.30;;;;;;5016906;28;20014;-95
2020/12/15 01:16:34;;;;;;;4.90;3.20;;;9.70;87.50;;;;;;5017276;28;20025;-95
2020/12/15 01:19:00;;;;;;;3.90;2.90;;;9.60;87.40;;;;;;5016862;28;20026;-94
2020/12/15 01:21:27;;;;;;;4.38;3.00;;;9.60;87.40;;;;;;5017137;28;20038;-94
2020/12/15 01:23:54;;;;;;;4.43;3.08;;;9.60;87.50;;;;;;5016929;28;20077;-96
2020/12/15 01:26:20;;;;;;;4.50;3.53;;;9.60;87.50;;;;;;5009326;28;20030;-95
2020/12/15 01:28:45;;;;;;;3.78;3.03;;;9.60;87.60;;;;;;4976298;28;20109;-95
2020/12/15 01:31:11;;;;;;;4.40;3.00;;;9.60;87.70;;;;;;4994167;28;20065;-95
2020/12/15 01:33:37;;;;;;;4.07;3.33;;;9.50;87.80;;;;;;4995434;28;20547;-96
2020/12/15 01:36:03;;;;;;;4.10;3.20;;;9.50;87.80;;;;;;4997108;28;20034;-95
2020/12/15 01:38:29;;;;;;;4.50;3.03;;;9.50;87.80;;;;;;4994831;28;20084;-96
2020/12/15 01:40:54;;;;;;;3.83;2.70;;;9.50;88.50;;;;;;4996094;28;20027;-96
2020/12/15 01:43:20;;;;;;;4.07;2.88;;;9.50;87.80;;;;;;5000423;28;20067;-95
2020/12/15 01:45:46;;;;;;;4.25;2.92;;;9.50;87.80;;;;;;5010375;28;20026;-95
2020/12/15 01:48:12;;;;;;;3.30;2.47;;;9.50;87.90;;;;;;5003284;28;20034;-96
2020/12/15 01:50:38;;;;;;;2.90;2.42;;;9.50;88.00;;;;;;4993257;28;20026;-95
2020/12/15 01:53:09;;;;;;;2.63;2.10;;;9.50;88.00;;;;;;4993220;28;20076;-95
2020/12/15 01:55:37;;;;;;;4.28;3.40;;;9.60;88.10;;;;;;4992955;28;20023;-95
2020/12/15 01:58:03;;;;;;;4.13;3.00;;;9.40;88.00;;;;;;4992614;28;20041;-95
2020/12/15 02:00:29;;;;;;;3.33;2.50;;;9.50;88.20;;;;;;4993130;28;20496;-96
2020/12/15 02:02:55;;;;;;;5.18;3.83;;;9.50;88.20;;;;;;4975681;28;20061;-96
2020/12/15 02:05:21;;;;;;;4.88;3.63;;;9.40;88.10;;;;;;4992518;28;20019;-95
2020/12/15 02:07:47;;;;;;;5.00;3.22;;;9.40;88.30;;;;;;4992715;28;20041;-94
2020/12/15 02:10:13;;;;;;;3.72;3.00;;;9.40;88.40;;;;;;4994495;28;20030;-96
2020/12/15 02:15:14;;;;;;;3.88;2.75;;;9.50;88.40;;;;;;5229732;23;20115;-94
2020/12/15 02:17:41;;;;;;;4.20;3.10;;;9.50;88.20;;;;;;5040739;28;20025;-96
2020/12/15 02:20:08;;;;;;;3.83;2.97;;;9.40;88.30;;;;;;5042444;28;20037;-96
2020/12/15 02:22:34;;;;;;;3.85;3.25;;;9.40;88.40;;;;;;5038470;28;20026;-96
2020/12/15 02:25:02;;;;;;;4.82;2.80;;;9.40;88.40;;;;;;5028021;28;20020;-96
2020/12/15 02:27:28;;;;;;;4.72;3.80;;;9.40;88.60;;;;;;5044850;28;20056;-96
2020/12/15 02:29:53;;;;;;;4.50;3.22;;;9.40;88.70;;;;;;5048109;28;20033;-96
2020/12/15 02:32:19;;;;;;;3.92;2.90;;;9.40;88.90;;;;;;5038712;28;20029;-96
2020/12/15 02:34:45;;;;;;;5.15;3.58;;;9.30;89.00;;;;;;5058063;28;20030;-96
2020/12/15 02:37:11;;;;;;;3.25;2.72;;;9.30;89.20;;;;;;5040914;28;20046;-96
2020/12/15 02:39:37;;;;;;;6.70;4.10;;;9.40;89.20;;;;;;5057783;28;20021;-93
2020/12/15 02:42:03;;;;;;;4.82;3.20;;;9.40;89.10;;;;;;5056467;28;20006;-93
2020/12/15 02:44:29;;;;;;;4.80;3.40;;;9.40;89.00;;;;;;5055559;28;20040;-95
2020/12/15 02:46:55;;;;;;;3.00;2.67;;;9.50;88.90;;;;;;5038721;28;20033;-96
2020/12/15 02:49:22;;;;;;;3.55;2.17;;;9.60;88.80;;;;;;5038149;28;20048;-96
2020/12/15 02:51:48;;;;;;;3.58;3.10;;;9.60;88.70;;;;;;5055899;28;20021;-95
2020/12/15 02:54:15;;;;;;;4.28;3.53;;;9.60;88.60;;;;;;5018939;28;20053;-95
2020/12/15 03:22:27;;;;;;;5.80;3.60;;;9.70;89.20;;;;;;5026455;28;20108;-96
2020/12/15 03:24:53;;;;;;;5.05;3.50;;;9.60;89.30;;;;;;5030457;28;20030;-96
2020/12/15 03:27:18;;;;;;;4.45;3.03;;;9.70;89.40;;;;;;5031013;28;20057;-96
2020/12/15 03:29:44;;;;;;;3.58;2.92;;;9.70;89.30;;;;;;5024821;28;20072;-96
2020/12/15 03:32:10;;;;;;;3.17;2.55;;;9.70;89.30;;;;;;5005828;28;20068;-96
2020/12/15 03:34:36;;;;;;;4.32;3.30;;;9.80;89.30;;;;;;5015136;28;20113;-96
2020/12/15 03:37:02;;;;;;;3.13;2.55;;;9.70;89.40;;;;;;5015291;28;20040;-96
2020/12/15 03:39:27;;;;;;;4.93;2.97;;;9.80;89.40;;;;;;5015102;28;20044;-96
2020/12/15 03:41:54;;;;;;;4.00;2.67;;;9.80;89.30;;;;;;4998550;28;20486;-96
2020/12/15 03:44:22;;;;;;;3.72;3.30;;;9.90;89.30;;;;;;5014731;28;20033;-95
2020/12/15 03:46:49;;;;;;;4.30;3.33;;;9.90;89.20;;;;;;5016103;28;20026;-96
2020/12/15 03:49:15;;;;;;;4.63;3.50;;;9.80;89.20;;;;;;4998417;28;20018;-95
2020/12/15 03:51:40;;;;;;;3.17;2.60;;;9.90;89.10;;;;;;5015239;28;20106;-96
2020/12/15 03:54:09;;;;;;;2.55;2.30;;;9.90;89.10;;;;;;5020287;28;20014;-96
2020/12/15 03:56:34;;;;;;;6.38;3.08;;;9.90;88.90;;;;;;5038046;28;20017;-95
2020/12/15 03:59:00;;;;;;;3.13;2.70;;;10.00;88.90;;;;;;5020734;28;20534;-95
2020/12/15 04:01:26;;;;;;;4.07;3.50;;;10.00;88.80;;;;;;5017112;28;20030;-94
2020/12/15 04:03:51;;;;;;;4.63;2.60;;;10.00;88.80;;;;;;5014461;28;20061;-93
2020/12/15 04:06:17;;;;;;;2.10;1.90;;;10.00;88.80;;;;;;5014446;28;20097;-94
2020/12/15 04:08:42;;;;;;;3.53;2.90;;;10.00;88.70;;;;;;4998172;28;20068;-95
2020/12/15 04:11:08;;;;;;;4.07;3.10;;;10.10;88.60;;;;;;5018621;28;20050;-96
2020/12/15 04:13:34;;;;;;;3.28;2.90;;;10.10;88.50;;;;;;5038037;28;20018;-96
2020/12/15 04:15:59;;;;;;;5.43;2.70;;;10.10;88.50;;;;;;5030943;28;20030;-96
2020/12/15 04:18:25;;;;;;;3.50;2.47;;;10.20;88.50;;;;;;5014508;28;20060;-96
2020/12/15 04:20:51;;;;;;;2.25;1.75;;;10.10;89.00;;;;;;5015275;28;20033;-95
2020/12/15 04:23:18;;;;;;;2.65;2.28;;;10.10;88.30;;;;;;5015369;28;20022;-96
2020/12/15 04:25:55;;;;;;;2.90;2.38;;;10.20;88.40;;;;;;5014990;28;20029;-95
2020/12/15 04:28:21;;;;;;;3.85;3.38;;;10.20;88.40;;;;;;4997408;28;20049;-95
2020/12/15 04:30:48;;;;;;;3.97;3.03;;;10.20;88.20;;;;;;5021083;28;20029;-95
2020/12/15 04:33:14;;;;;;;2.47;2.13;;;10.20;88.20;;;;;;5013804;28;20307;-96
2020/12/15 04:35:39;;;;;;;3.53;2.80;;;10.20;88.20;;;;;;5022209;28;20113;-95
2020/12/15 04:38:05;;;;;;;4.20;2.90;;;10.20;88.20;;;;;;5017342;28;20026;-95
2020/12/15 04:40:35;;;;;;;2.67;2.45;;;10.20;88.20;;;;;;4997436;28;20491;-96
2020/12/15 04:43:02;;;;;;;4.07;3.50;;;10.20;88.10;;;;;;5016158;28;20084;-96
2020/12/15 04:45:29;;;;;;;2.58;2.10;;;10.20;88.00;;;;;;5015291;28;20032;-96
2020/12/15 04:48:07;;;;;;;4.63;3.22;;;10.20;88.10;;;;;;5018946;28;20033;-96
2020/12/15 04:50:37;;;;;;;5.43;3.55;;;10.20;88.10;;;;;;5325857;22;20066;-96
2020/12/15 04:53:10;;;;;;;3.28;2.83;;;10.20;88.20;;;;;;5005540;28;20035;-96
2020/12/15 04:55:37;;;;;;;5.13;3.38;;;10.20;88.20;;;;;;4997558;28;20045;-96
2020/12/15 04:58:03;;;;;;;4.15;3.17;;;10.20;88.20;;;;;;5002947;28;20072;-96
2020/12/15 05:00:30;;;;;;;4.63;3.45;;;10.20;88.20;;;;;;5006620;28;20038;-96
2020/12/15 05:02:57;;;;;;;5.93;4.25;;;10.20;88.20;;;;;;5003667;28;20506;-96
2020/12/15 05:05:24;;;;;;;5.88;3.58;;;10.20;88.20;;;;;;5007116;28;20049;-96
2020/12/15 05:07:50;;;;;;;3.33;2.78;;;10.10;88.20;;;;;;5013383;28;20057;-96
2020/12/15 05:18:05;;;;;;;3.40;2.50;;;10.20;88.10;;;;;;5159306;22;20097;-94
2020/12/15 05:20:32;;;;;;;3.22;2.85;;;10.30;88.20;;;;;;5033607;28;20060;-95
2020/12/15 05:22:58;;;;;;;3.58;3.15;;;10.20;88.10;;;;;;5033340;28;20034;-93
2020/12/15 05:25:32;;;;;;;2.03;1.83;;;10.30;88.10;;;;;;5030466;28;20085;-91
2020/12/15 05:28:00;;;;;;;2.72;2.03;;;10.30;88.70;;;;;;5016077;28;20030;-93
2020/12/15 05:30:29;;;;;;;3.92;2.92;;;10.30;88.00;;;;;;5013908;28;20083;-95
2020/12/15 05:32:57;;;;;;;2.17;1.98;;;10.30;87.90;;;;;;5028031;28;20022;-95
2020/12/15 05:35:29;;;;;;;3.65;2.47;;;10.40;87.90;;;;;;5026268;28;20032;-95
2020/12/15 05:37:57;;;;;;;4.00;2.08;;;10.30;87.90;;;;;;5030694;28;20041;-94
2020/12/15 05:40:22;;;;;;;5.07;3.42;;;10.40;87.90;;;;;;5032956;28;20018;-94
2020/12/15 05:42:59;;;;;;;2.90;2.50;;;10.30;87.90;;;;;;5034302;28;20013;-95
2020/12/15 05:45:26;;;;;;;2.90;2.50;;;10.30;87.90;;;;;;5043113;28;20024;-94
2020/12/15 05:48:06;;;;;;;3.72;2.20;;;10.40;87.90;;;;;;5032487;28;20146;-94
2020/12/15 05:50:32;;;;;;;4.25;3.28;;;10.30;87.80;;;;;;5015582;28;20026;-94
2020/12/15 05:52:59;;;;;;;3.30;2.35;;;10.30;87.90;;;;;;5027535;28;20075;-94
2020/12/15 05:55:25;;;;;;;3.72;2.80;;;10.20;88.00;;;;;;5022073;28;20033;-94
2020/12/15 05:57:52;;;;;;;3.45;2.03;;;10.20;88.10;;;;;;5029430;28;20036;-94
2020/12/15 06:00:18;;;;;;;3.17;2.65;;;10.20;88.10;;;;;;5026934;28;20028;-94
2020/12/15 06:02:55;;;;;;;4.07;3.13;;;10.20;88.10;;;;;;5022387;28;20479;-94
2020/12/15 06:05:24;;;;;;;2.85;2.30;;;10.20;88.20;;;;;;5023977;28;20029;-95
2020/12/15 06:07:55;;;;;;;3.10;2.78;;;10.20;88.20;;;;;;5018747;28;20124;-95
2020/12/15 06:10:22;;;;;;;4.07;2.60;;;10.20;88.20;;;;;;5012605;28;20025;-95
2020/12/15 06:12:52;;;;;;;3.42;2.90;;;10.30;88.10;;;;;;5014046;28;20018;-96
2020/12/15 06:15:18;;;;;;;3.40;2.60;;;10.10;88.00;;;;;;5017817;28;20026;-96
2020/12/15 06:18:03;;;;;;;3.67;2.90;;;10.20;88.20;;;;;;5023749;28;20076;-96
2020/12/15 06:20:33;;;;;;;4.15;2.60;;;10.10;88.20;;;;;;5016830;28;20041;-96
2020/12/15 06:23:00;;;;;;;4.05;3.08;;;10.10;88.10;;;;;;5025832;28;20025;-96
2020/12/15 06:25:36;;;;;;;3.50;2.35;;;10.10;88.10;;;;;;5031887;28;20052;-96
2020/12/15 06:28:05;;;;;;;4.57;3.17;;;10.10;88.20;;;;;;5027914;28;20148;-96
2020/12/15 06:30:32;;;;;;;3.50;2.08;;;10.10;88.30;;;;;;5018286;28;20107;-96
2020/12/15 06:33:04;;;;;;;3.40;2.38;;;10.10;88.30;;;;;;5020758;28;20029;-95
2020/12/15 06:35:29;;;;;;;2.65;2.00;;;10.10;88.30;;;;;;5029505;28;20033;-96
2020/12/15 06:37:55;;;;;;;3.63;2.80;;;10.20;88.20;;;;;;5032977;28;20029;-93
2020/12/15 06:40:21;;;;;;;3.42;2.30;;;10.20;88.70;;;;;;5031423;28;20101;-93
2020/12/15 06:43:00;;;;;;;4.28;3.30;;;10.20;88.00;;;;;;5024273;28;20552;-96
2020/12/15 06:45:26;;;;;;;2.72;2.40;;;10.10;87.90;;;;;;5025190;28;20048;-96
2020/12/15 06:48:03;;;;;;;2.97;2.30;;;10.20;88.10;;;;;;5444829;22;20045;-93
2020/12/15 06:50:43;;;;;;;2.63;2.10;;;10.20;88.10;;;;;;5025753;28;20093;-93
2020/12/15 06:53:12;;;;;;;4.13;3.15;;;10.20;88.10;;;;;;5022352;28;20010;-94
2020/12/15 06:55:38;;;;;;;4.15;2.70;;;10.20;88.10;;;;;;5017869;28;20050;-93
2020/12/15 06:58:04;;;;;;;4.20;2.90;;;10.20;88.10;;;;;;5019100;28;20030;-88
2020/12/15 07:00:35;;;;;;;2.42;2.08;;;10.20;88.10;;;;;;5019170;28;20026;-88
2020/12/15 07:03:02;;;;;;;2.90;2.60;;;10.20;88.10;;;;;;5008139;28;20043;-89
2020/12/15 07:05:31;;;;;;;3.33;2.65;;;10.30;88.10;;;;;;5009617;28;20046;-90
2020/12/15 07:08:00;;;;;;;3.50;2.97;;;10.30;88.00;;;;;;5015235;28;20034;-90
2020/12/15 07:10:28;;;;;;;4.22;2.67;;;10.30;87.90;;;;;;5018386;28;20027;-90
2020/12/15 07:12:59;;;;;;;5.05;3.95;;;10.30;87.80;;;;;;5006448;28;20072;-90
2020/12/15 07:15:25;;;;;;;5.10;4.07;;;10.30;87.70;;;;;;5002512;28;20104;-90
2020/12/15 07:17:53;;;;;;;4.60;3.10;;;10.20;87.60;;;;;;5016797;28;20046;-90
2020/12/15 07:20:20;;;;;;;5.68;3.72;;;10.20;87.70;;;;;;4980507;28;20388;-92
2020/12/15 07:22:46;;;;;;;6.32;4.18;;;10.20;87.70;;;;;;4995107;28;20023;-90
2020/12/15 07:25:13;;;;;;;4.13;3.33;;;10.20;87.80;;;;;;4996319;28;20073;-90
2020/12/15 07:27:39;;;;;;;4.70;3.00;;;10.20;87.80;;;;;;4999246;28;20018;-88
2020/12/15 07:30:10;;;;;;;3.00;2.55;;;10.20;87.80;;;;;;4976587;28;20614;-90
2020/12/15 07:32:43;;;;;;;3.45;2.60;;;10.20;87.70;;;;;;4994631;28;20491;-90
2020/12/15 07:35:10;;;;;;;;;;;10.30;87.70;;;;;;4997201;28;20019;-89
2020/12/15 07:37:39;;;;;;;3.17;2.22;;;10.30;87.60;;;;;;4996401;28;19983;-92
2020/12/15 07:40:08;;;;;;;3.85;2.83;;;10.30;87.60;;;;;;4976209;28;20037;-91
2020/12/15 07:42:33;;;;;;;3.75;2.72;;;10.30;87.80;;;;;;4992402;28;20545;-91
2020/12/15 07:45:09;;;;;;;3.17;2.60;;;10.30;87.80;;;;;;4994565;28;20030;-87
2020/12/15 07:47:43;;;;;;;3.92;2.78;;;10.30;87.70;;;;;;4993323;28;20065;-91
2020/12/15 07:50:29;;;;;;;3.30;2.50;;;10.30;87.70;;;;;;4997217;28;20037;-91
2020/12/15 07:52:56;;;;;;;5.10;3.90;;;10.30;87.80;;;;;;5008639;28;20045;-89
2020/12/15 07:55:23;;;;;;;6.40;4.13;;;10.20;87.90;;;;;;4998197;28;20091;-87
2020/12/15 07:57:49;;;;;;;4.63;3.70;;;10.20;88.10;;;;;;4996711;28;20046;-89
2020/12/15 08:00:21;;;;;;;4.53;3.28;;;10.10;88.20;;;;;;5012150;28;20019;-87
2020/12/15 08:02:47;;;;;;;3.22;2.50;;;10.20;88.30;;;;;;4975937;28;20113;-87
2020/12/15 08:05:21;;;;;;;6.03;4.30;;;10.20;88.20;;;;;;4992465;28;20034;-85
2020/12/15 08:07:58;;;;;;;4.35;3.50;;;10.20;88.10;;;;;;4995170;28;20026;-86
2020/12/15 08:10:25;;;;;;;5.28;4.57;;;10.20;88.20;;;;;;5012691;28;20030;-87
2020/12/15 08:12:54;;;;;;;6.63;4.65;;;10.20;88.10;;;;;;5008154;28;20014;-87
2020/12/15 08:15:20;;;;;;;4.80;3.75;;;10.20;88.10;;;;;;5010363;28;20015;-89
2020/12/15 08:17:47;;;;;;;5.30;4.35;;;10.10;88.10;;;;;;4969900;28;20049;-88
2020/12/15 08:20:15;;;;;;;6.35;4.45;;;10.20;88.20;;;;;;4987905;28;20053;-85
2020/12/15 08:22:43;;;;;;;6.32;4.47;;;10.10;88.20;;;;;;4984310;28;20042;-88
2020/12/15 08:25:11;;;;;;;6.40;4.75;;;10.20;88.20;;;;;;4964631;28;20113;-87
2020/12/15 08:27:36;;;;;;;3.20;2.78;;;10.20;88.20;;;;;;4969700;28;20038;-88
2020/12/15 08:30:20;;;;;;;3.90;3.50;;;10.20;88.30;;;;;;4988918;28;20525;-89
2020/12/15 08:32:51;;;;;;;4.85;3.53;;;10.20;88.20;;;;;;4985073;28;20026;-89
2020/12/15 08:35:24;;;;;;;4.05;3.50;;;10.20;88.30;;;;;;4989029;28;20472;-88
2020/12/15 08:37:59;;;;;;;6.40;4.30;;;10.30;88.30;;;;;;4984310;28;20049;-89
2020/12/15 08:40:26;;;;;;;5.60;3.67;;;10.30;88.30;;;;;;4972543;28;20045;-89
2020/12/15 08:43:01;;;;;;;6.03;4.00;;;10.30;88.20;;;;;;4992456;28;20030;-93
2020/12/15 08:45:27;;;;;;;4.57;4.03;;;10.30;88.20;;;;;;4995182;28;20305;-87
2020/12/15 08:47:54;;;;;;;5.85;4.40;;;10.30;88.20;;;;;;5001380;28;20101;-90
2020/12/15 08:50:21;;;;;;;4.85;3.53;;;10.30;88.30;;;;;;4975009;28;20149;-92
2020/12/15 08:52:46;;;;;;;4.68;3.28;;;10.30;88.20;;;;;;4984234;28;20030;-89
2020/12/15 08:55:12;;;;;;;7.00;5.60;;;10.40;88.20;;;;;;4988519;28;20023;-87
2020/12/15 08:57:38;;;;;;;4.82;4.00;;;10.30;88.20;;;;;;4988597;28;21355;-90
2020/12/15 09:00:15;;;;;;;4.05;3.42;;;10.40;88.40;;;;;;4968185;28;20053;-86
2020/12/15 09:02:42;;;;;;;4.88;3.90;;;10.40;88.30;;;;;;4983964;28;20030;-88
2020/12/15 09:05:12;;;;;;;3.95;3.13;;;10.40;88.30;;;;;;4986796;28;20026;-87
2020/12/15 09:07:39;;;;;;;4.55;3.60;;;10.40;88.30;;;;;;4987948;28;20030;-88
2020/12/15 09:10:09;;;;;;;4.00;3.10;;;10.50;88.30;;;;;;4985510;28;20159;-89
2020/12/15 09:12:35;;;;;;;5.82;4.78;;;10.50;88.20;;;;;;4988546;28;20128;-88
2020/12/15 09:15:01;;;;;;;5.18;4.30;;;10.50;88.20;;;;;;4988223;28;20340;-88
2020/12/15 09:17:27;;;;;;;5.38;4.18;;;10.50;88.20;;;;;;4988129;28;20034;-90
2020/12/15 09:19:52;;;;;;;5.45;4.65;;;10.50;88.20;;;;;;4985199;28;20116;-90
2020/12/15 09:22:18;;;;;;;5.93;4.60;;;10.50;88.20;;;;;;4986116;28;20109;-91
2020/12/15 09:24:44;;;;;;;4.80;3.70;;;10.60;88.30;;;;;;4985583;28;20034;-87
2020/12/15 09:27:20;;;;;;;5.30;4.03;;;10.60;88.30;;;;;;4986691;28;20188;-88
2020/12/15 09:29:46;;;;;;;3.85;3.38;;;10.60;88.20;;;;;;4968993;28;20042;-89
2020/12/15 09:32:12;;;;;;;8.45;7.50;;;10.60;88.10;;;;;;4988027;28;20034;-89
2020/12/15 09:34:37;;;;;;;5.95;5.05;;;10.50;88.20;;;;;;4984059;28;20026;-90
2020/12/15 09:37:03;;;;;;;5.70;4.85;;;10.50;88.40;;;;;;4988243;28;20122;-88
2020/12/15 09:39:30;;;;;;;5.93;4.40;;;10.60;88.50;;;;;;4971895;28;20042;-90
2020/12/15 09:41:59;;;;;;;6.75;5.53;;;10.60;88.40;;;;;;4987870;28;20022;-90
2020/12/15 09:44:25;;;;;;;8.07;5.95;;;10.60;88.40;;;;;;4995996;28;20133;-91
2020/12/15 09:46:52;;;;;;;5.95;5.13;;;10.60;88.50;;;;;;5001068;28;20003;-94
2020/12/15 09:49:17;;;;;;;5.60;4.20;;;10.50;88.40;;;;;;4990149;28;20034;-91
2020/12/15 09:51:43;;;;;;;5.78;4.65;;;10.60;88.50;;;;;;4987383;28;20031;-93
2020/12/15 09:54:09;;;;;;;7.50;6.25;;;10.60;88.50;;;;;;4988588;28;20030;-92
2020/12/15 09:56:36;;;;;;;5.88;4.60;;;10.60;88.40;;;;;;4969718;28;20602;-91
2020/12/15 09:59:03;;;;;;;7.95;6.07;;;10.60;88.50;;;;;;4986808;28;20078;-88
2020/12/15 10:01:29;;;;;;;8.63;6.43;;;10.60;88.50;;;;;;4972000;28;20022;-92
2020/12/15 10:03:55;;;;;;;4.45;3.75;;;10.60;88.60;;;;;;4984585;28;20224;-94
2020/12/15 10:06:20;;;;;;;6.82;5.47;;;10.60;88.70;;;;;;4997298;28;20032;-96
2020/12/15 10:08:46;;;;;;;5.25;4.32;;;10.70;88.70;;;;;;4980558;28;20065;-91
2020/12/15 10:11:16;;;;;;;5.38;4.63;;;10.70;88.60;;;;;;4998171;28;20034;-92
2020/12/15 10:13:42;;;;;;;6.95;5.60;;;10.70;88.60;;;;;;4989368;28;20114;-91
2020/12/15 10:16:07;;;;;;;8.43;7.30;;;10.80;88.60;;;;;;5002838;28;20046;-91
2020/12/15 10:18:33;;;;;;;5.53;4.82;;;10.70;88.60;;;;;;4997198;28;20082;-90
2020/12/15 10:20:59;;;;;;;6.10;4.22;;;10.70;88.60;;;;;;4996120;28;20061;-91
2020/12/15 10:23:24;;;;;;;6.53;4.60;;;10.70;88.70;;;;;;4992843;28;20365;-91
2020/12/15 10:25:50;;;;;;;6.30;5.13;;;10.80;88.70;;;;;;4992590;28;20557;-90
2020/12/15 10:28:16;;;;;;;5.13;4.40;;;10.70;88.60;;;;;;4988549;28;20034;-93
2020/12/15 10:30:41;;;;;;;4.40;3.60;;;10.80;88.70;;;;;;4985085;28;20090;-90
2020/12/15 10:33:07;;;;;;;6.97;5.50;;;10.80;88.60;;;;;;4985589;28;20026;-92
2020/12/15 10:35:33;;;;;;;4.80;4.25;;;10.80;88.50;;;;;;4988307;28;20031;-92
2020/12/15 10:37:58;;;;;;;5.68;4.50;;;10.80;88.50;;;;;;4970819;28;20516;-91
2020/12/15 10:40:24;;;;;;;6.68;4.93;;;10.80;88.60;;;;;;4988008;28;20527;-92
2020/12/15 10:42:50;;;;;;;6.97;6.07;;;10.90;88.60;;;;;;4990581;28;20464;-93
2020/12/15 10:45:15;;;;;;;6.68;5.13;;;10.80;88.60;;;;;;4991345;28;20070;-92
2020/12/15 10:47:51;;;;;;;7.35;6.53;;;10.90;88.60;;;;;;4996439;28;20026;-96
2020/12/15 10:50:17;;;;;;;8.93;7.00;;;10.80;88.50;;;;;;4996216;28;20053;-92
2020/12/15 10:52:42;;;;;;;6.65;5.75;;;10.90;89.20;;;;;;4977636;28;20073;-93
2020/12/15 10:55:08;;;;;;;7.28;6.30;;;10.80;88.60;;;;;;5006195;28;20026;-92
2020/12/15 10:57:36;;;;;;;6.03;5.07;;;10.80;88.70;;;;;;5010455;28;20050;-93
2020/12/15 11:00:04;;;;;;;7.13;5.90;;;10.90;88.70;;;;;;4996035;28;20019;-94
2020/12/15 11:02:30;;;;;;;8.18;6.55;;;10.80;88.70;;;;;;5015185;28;20018;-92
2020/12/15 11:04:56;;;;;;;7.20;5.10;;;10.80;88.60;;;;;;5008671;28;20269;-90
2020/12/15 11:07:21;;;;;;;4.05;3.13;;;10.90;88.70;;;;;;5002014;28;20041;-91
2020/12/15 11:09:47;;;;;;;7.28;5.97;;;10.90;88.70;;;;;;5003618;28;20034;-93
2020/12/15 11:12:13;;;;;;;8.15;5.93;;;10.90;88.60;;;;;;5013477;28;20034;-94
2020/12/15 11:14:38;;;;;;;6.40;5.25;;;10.90;88.60;;;;;;5009142;28;20054;-94
2020/12/15 11:17:04;;;;;;;7.18;5.85;;;10.90;88.60;;;;;;4976043;28;20018;-94
2020/12/15 11:19:31;;;;;;;8.43;7.53;;;10.90;88.60;;;;;;4999437;28;20033;-96
2020/12/15 11:21:57;;;;;;;7.15;6.28;;;10.90;88.60;;;;;;5004696;28;20034;-96
2020/12/15 11:24:22;;;;;;;6.75;5.97;;;10.90;88.60;;;;;;4998356;28;20122;-94
2020/12/15 11:26:51;;;;;;;6.65;5.38;;;10.90;88.60;;;;;;4996713;28;20037;-95
2020/12/15 11:29:16;;;;;;;5.70;4.55;;;11.00;88.60;;;;;;4998778;28;20027;-92
2020/12/15 11:31:42;;;;;;;4.82;4.25;;;11.00;88.60;;;;;;4982037;28;20121;-94
2020/12/15 11:34:08;;;;;;;6.47;5.47;;;11.10;88.50;;;;;;4983376;28;20089;-95
2020/12/15 11:36:34;;;;;;;9.25;7.90;;;11.10;88.50;;;;;;5001924;28;20049;-96
2020/12/15 11:39:02;;;;;;;6.50;5.40;;;11.10;88.40;;;;;;5010893;28;20420;-94
2020/12/15 11:41:28;;;;;;;6.25;4.95;;;11.10;88.40;;;;;;5009672;28;20013;-95
2020/12/15 11:43:54;;;;;;;6.22;5.45;;;11.10;88.40;;;;;;5018509;28;20061;-96
2020/12/15 11:46:20;;;;;;;9.13;7.13;;;11.10;88.40;;;;;;5167570;23;20121;-96
2020/12/15 11:48:46;;;;;;;6.15;4.90;;;11.10;88.40;;;;;;5020456;28;20030;-96
2020/12/15 11:51:11;;;;;;;6.20;4.78;;;11.10;88.40;;;;;;5028219;28;20031;-96
2020/12/15 11:56:15;;;;;;;4.50;3.65;;;11.10;88.40;;;;;;5187940;22;20073;-92
2020/12/15 11:58:41;;;;;;;3.13;2.83;;;11.10;88.40;;;;;;5031540;28;20115;-95
2020/12/15 12:01:07;;;;;;;4.15;3.75;;;11.20;88.40;;;;;;5022218;28;20614;-95
2020/12/15 12:03:38;;;;;;;6.93;5.40;;;11.20;88.40;;;;;;4996630;28;20097;-94
2020/12/15 12:06:04;;;;;;;5.45;4.32;;;11.20;88.30;;;;;;4991262;28;20026;-96
2020/12/15 12:08:29;;;;;;;4.60;4.10;;;11.20;88.40;;;;;;5034498;28;20018;-96
2020/12/15 12:10:55;;;;;;;6.63;5.28;;;11.20;88.30;;;;;;5017777;28;20056;-92
2020/12/15 12:13:21;;;;;;;7.28;5.10;;;11.20;88.40;;;;;;5010110;28;20068;-94
2020/12/15 12:15:48;;;;;;;5.57;4.93;;;11.10;88.40;;;;;;5012477;28;20029;-92
2020/12/15 12:18:14;;;;;;;6.15;5.43;;;11.10;88.40;;;;;;5027497;28;20107;-94
2020/12/15 12:20:39;;;;;;;7.70;6.32;;;11.10;88.40;;;;;;4998221;28;20026;-92
2020/12/15 12:23:05;;;;;;;6.00;5.25;;;11.10;88.50;;;;;;5013065;28;20033;-94
2020/12/15 12:25:31;;;;;;;4.60;3.97;;;11.10;88.50;;;;;;5011063;28;20145;-94
2020/12/15 12:27:59;;;;;;;7.05;5.90;;;11.10;88.50;;;;;;5011889;28;20053;-93
2020/12/15 12:30:25;;;;;;;8.55;7.55;;;11.10;88.40;;;;;;5013376;28;20030;-96
2020/12/15 12:32:51;;;;;;;5.93;5.30;;;11.10;88.50;;;;;;4995155;28;20033;-93
2020/12/15 12:35:16;;;;;;;5.95;5.07;;;11.10;88.60;;;;;;5025060;28;20036;-93
2020/12/15 12:37:42;;;;;;;8.48;6.40;;;11.10;88.60;;;;;;5069716;23;20066;-92
2020/12/15 12:40:08;;;;;;;5.80;4.85;;;11.10;88.50;;;;;;5007100;28;20538;-93
2020/12/15 12:42:33;;;;;;;6.85;5.43;;;11.10;88.60;;;;;;4997354;28;20093;-95
2020/12/15 12:44:59;;;;;;;7.65;6.25;;;11.20;88.60;;;;;;5008340;28;20022;-95
2020/12/15 12:47:25;;;;;;;9.13;6.35;;;11.10;88.60;;;;;;5002694;28;20042;-91
2020/12/15 12:49:52;;;;;;;4.55;4.05;;;11.10;88.60;;;;;;5008949;28;20029;-90
2020/12/15 12:52:18;;;;;;;8.32;7.32;;;11.10;88.70;;;;;;5021510;28;20052;-95
2020/12/15 12:54:45;;;;;;;8.00;5.88;;;11.10;88.70;;;;;;5007869;28;20018;-96
2020/12/15 12:57:11;;;;;;;7.32;6.38;;;11.10;88.80;;;;;;5004337;28;20030;-96
2020/12/15 12:59:37;;;;;;;5.60;5.00;;;11.10;88.70;;;;;;4982882;28;20045;-94
2020/12/15 13:02:03;;;;;;;5.40;4.72;;;11.20;88.80;;;;;;5030095;28;20018;-93
2020/12/15 13:04:30;;;;;;;7.60;6.70;;;11.20;88.70;;;;;;5030747;28;20018;-95
2020/12/15 13:06:57;;;;;;;5.00;4.03;;;11.10;88.70;;;;;;5004564;28;20033;-91
2020/12/15 13:09:28;;;;;;;4.50;3.55;;;11.10;89.40;;;;;;4989623;28;20032;-93
2020/12/15 13:11:59;;;;;;;6.00;5.22;;;11.20;89.00;;;;;;4996568;28;20030;-96
2020/12/15 13:14:29;;;;;;;4.95;4.10;;;11.20;88.70;;;;;;5030044;28;20014;-96
2020/12/15 13:16:54;;;;;;;6.28;4.85;;;11.20;88.70;;;;;;5021580;28;20044;-94
2020/12/15 13:19:20;;;;;;;7.78;5.45;;;11.20;88.70;;;;;;5008981;28;20463;-96
2020/12/15 13:21:46;;;;;;;5.53;4.60;;;11.30;88.80;;;;;;5007962;28;20022;-93
2020/12/15 13:24:12;;;;;;;3.65;2.83;;;11.20;88.70;;;;;;5001550;28;20026;-95
2020/12/15 13:26:41;;;;;;;5.00;4.32;;;11.30;88.70;;;;;;5015517;28;20089;-96
2020/12/15 13:29:07;;;;;;;6.35;4.70;;;11.30;88.70;;;;;;5016090;28;20096;-95
2020/12/15 13:39:19;;;;;;;5.88;4.70;;;11.30;88.60;;;;;;5638493;22;20107;-96
2020/12/15 13:41:45;;;;;;;5.45;4.30;;;11.40;88.70;;;;;;5033394;28;20033;-94
2020/12/15 13:44:11;;;;;;;6.95;5.63;;;11.40;88.70;;;;;;5031240;28;20026;-93
2020/12/15 13:46:36;;;;;;;5.38;4.78;;;11.40;88.60;;;;;;5031433;28;20055;-93
2020/12/15 13:49:04;;;;;;;4.78;3.95;;;11.30;88.50;;;;;;5022005;28;20024;-93